»·PEaware :: WAT1252 KSEA-KRDM

WAT1252 :: KSEA-KRDM

FLIGHT INFORMATION

Flight Status: Arrived
Operator:
Walker Air Transport
More flights by this operator :: More flights under this callsign
Pilot: David D. (37029)
Aircraft: PIPER PA-31/31P NAVAJO CHIEFTAIN
(PA31)
More flights by this aircraft type
Origin: KSEA Seattle-Tacoma Intl
United States
Destination: KRDM Roberts
United States
More flights between these airports :: More routes between these airports
Route: SEA8 SEA V495 BTG DSD
File this flight plan on PilotEdge
Remarks:
Altitude:
(Current/Filed)
13,000ft
Speed:
(Current/Filed)
180kts
Departed: 12-Feb-24 08:49 PM
Arrived: 12-Feb-24 10:03 PM
Distance/Time
Traveled:
197nm/1:13
Distance/Time
To Go:
Arrived

Flight Plot

Page will automatically refresh every two minutes.

Flight plan parsing failed; only flown route is shown


Map Options




Map Legend


Flown Route
Filed Route
Departure Airport
Arrival Airport
Navaid (VOR, NDB)
Fix

Horizontal Profiles

Position Reports

Time Latitude Longitude Heading Altitude Ground
Speed
12-Feb-24 20:00 47.439826 -122.315666 89 430ft 0kts
12-Feb-24 20:01 47.439826 -122.315666 89 430ft 0kts
12-Feb-24 20:02 47.439826 -122.315666 89 430ft 0kts
12-Feb-24 20:03 47.439826 -122.315666 89 430ft 0kts
12-Feb-24 20:04 47.439826 -122.315666 89 430ft 0kts
12-Feb-24 20:05 47.439826 -122.315666 89 430ft 0kts
12-Feb-24 20:06 47.439826 -122.315666 89 430ft 0kts
12-Feb-24 20:07 47.439826 -122.315666 89 430ft 0kts
12-Feb-24 20:08 47.439826 -122.315666 89 430ft 0kts
12-Feb-24 20:09 47.439826 -122.315666 89 430ft 0kts
12-Feb-24 20:10 47.439826 -122.315666 89 430ft 0kts
12-Feb-24 20:11 47.439826 -122.315666 89 430ft 0kts
12-Feb-24 20:12 47.439826 -122.315666 89 430ft 0kts
12-Feb-24 20:13 47.439826 -122.315666 89 430ft 0kts
12-Feb-24 20:14 47.439826 -122.315666 89 430ft 0kts
12-Feb-24 20:15 47.439826 -122.315666 89 430ft 0kts
12-Feb-24 20:16 47.439826 -122.315666 89 430ft 0kts
12-Feb-24 20:17 47.439826 -122.315666 89 430ft 0kts
12-Feb-24 20:18 47.439826 -122.315666 89 430ft 0kts
12-Feb-24 20:19 47.439826 -122.315666 89 430ft 0kts
12-Feb-24 20:20 47.439826 -122.315666 89 430ft 0kts
12-Feb-24 20:21 47.439826 -122.315666 89 430ft 0kts
12-Feb-24 20:22 47.439826 -122.315666 89 430ft 0kts
12-Feb-24 20:23 47.439826 -122.315666 89 430ft 0kts
12-Feb-24 20:24 47.439826 -122.315666 89 430ft 0kts
12-Feb-24 20:25 47.439826 -122.315666 89 430ft 0kts
12-Feb-24 20:26 47.439826 -122.315666 89 430ft 0kts
12-Feb-24 20:27 47.439826 -122.315666 89 430ft 0kts
12-Feb-24 20:28 47.439826 -122.315666 89 430ft 0kts
12-Feb-24 20:29 47.439826 -122.315666 89 430ft 0kts
12-Feb-24 20:30 47.439826 -122.315666 89 430ft 0kts
12-Feb-24 20:31 47.439826 -122.315666 89 430ft 0kts
12-Feb-24 20:32 47.439826 -122.315666 89 430ft 0kts
12-Feb-24 20:33 47.439826 -122.315666 89 430ft 0kts
12-Feb-24 20:34 47.439826 -122.315666 89 430ft 0kts
12-Feb-24 20:35 47.439826 -122.315666 89 430ft 0kts
12-Feb-24 20:36 47.439826 -122.315666 89 430ft 0kts
12-Feb-24 20:37 47.439743 -122.315041 104 430ft 8kts
12-Feb-24 20:38 47.443332 -122.313619 0 430ft 23kts
12-Feb-24 20:39 47.450188 -122.313554 0 430ft 26kts
12-Feb-24 20:40 47.457482 -122.313490 0 430ft 27kts
12-Feb-24 20:41 47.463105 -122.313420 358 430ft 10kts
12-Feb-24 20:42 47.463654 -122.312539 90 430ft 0kts
12-Feb-24 20:43 47.463654 -122.312539 90 430ft 0kts
12-Feb-24 20:44 47.463654 -122.312539 90 430ft 0kts
12-Feb-24 20:45 47.463654 -122.312539 90 430ft 0kts
12-Feb-24 20:47 47.463654 -122.312539 90 430ft 0kts
12-Feb-24 20:48 47.462892 -122.310992 180 430ft 20kts
12-Feb-24 20:49 47.439450 -122.311038 177 1139ft 97kts
12-Feb-24 20:50 47.408219 -122.306364 174 2397ft 113kts
12-Feb-24 20:51 47.378288 -122.313608 189 3482ft 113kts
12-Feb-24 20:52 47.346823 -122.319125 187 4569ft 116kts
12-Feb-24 20:53 47.314566 -122.325175 188 5693ft 118kts
12-Feb-24 20:54 47.281965 -122.331363 189 6808ft 119kts
12-Feb-24 20:55 47.248972 -122.337564 189 7912ft 121kts
12-Feb-24 20:56 47.215681 -122.343829 190 9004ft 122kts
12-Feb-24 20:57 47.181966 -122.350201 190 10080ft 123kts
12-Feb-24 20:58 47.147720 -122.356609 191 11151ft 125kts
12-Feb-24 20:59 47.111653 -122.363344 191 12101ft 137kts
12-Feb-24 21:00 47.071441 -122.370524 190 12895ft 155kts
12-Feb-24 21:01 47.022204 -122.379059 189 12983ft 198kts
12-Feb-24 21:02 46.966789 -122.388491 188 12983ft 199kts
12-Feb-24 21:03 46.912270 -122.397806 188 12986ft 195kts
12-Feb-24 21:04 46.858537 -122.406942 187 12986ft 193kts
12-Feb-24 21:05 46.805334 -122.415948 187 12986ft 193kts
12-Feb-24 21:06 46.752120 -122.424950 187 12986ft 193kts
12-Feb-24 21:07 46.698640 -122.433981 187 12985ft 194kts
12-Feb-24 21:08 46.645095 -122.443028 187 12980ft 194kts
12-Feb-24 21:08 46.600318 -122.450554 187 12977ft 194kts
12-Feb-24 21:09 46.546591 -122.459571 187 12974ft 194kts
12-Feb-24 21:11 46.483989 -122.470061 187 12983ft 194kts
12-Feb-24 21:12 46.430444 -122.479010 187 12991ft 194kts
12-Feb-24 21:13 46.376818 -122.487952 187 12996ft 194kts
12-Feb-24 21:13 46.332030 -122.495409 187 12997ft 194kts
12-Feb-24 21:14 46.278224 -122.504343 187 12997ft 195kts
12-Feb-24 21:15 46.224425 -122.513268 187 12997ft 195kts
12-Feb-24 21:16 46.170463 -122.522202 187 12997ft 195kts
12-Feb-24 21:18 46.107703 -122.532570 187 12997ft 195kts
12-Feb-24 21:18 46.062658 -122.539997 187 12995ft 195kts
12-Feb-24 21:19 46.008673 -122.548883 187 12986ft 196kts
12-Feb-24 21:20 45.954527 -122.557777 187 12977ft 196kts
12-Feb-24 21:21 45.900355 -122.566657 187 12971ft 196kts
12-Feb-24 21:22 45.846260 -122.575500 187 12973ft 195kts
12-Feb-24 21:23 45.792288 -122.584278 187 12978ft 195kts
12-Feb-24 21:24 45.739071 -122.583426 152 12985ft 194kts
12-Feb-24 21:25 45.692743 -122.543227 147 12980ft 195kts
12-Feb-24 21:26 45.646776 -122.501899 147 12977ft 195kts
12-Feb-24 21:27 45.600543 -122.460941 147 12974ft 195kts
12-Feb-24 21:28 45.554312 -122.420149 147 12970ft 196kts
12-Feb-24 21:29 45.507911 -122.379290 147 12969ft 196kts
12-Feb-24 21:30 45.461685 -122.338663 147 12969ft 196kts
12-Feb-24 21:31 45.415358 -122.298028 147 12969ft 196kts
12-Feb-24 21:32 45.368983 -122.257429 147 12969ft 196kts
12-Feb-24 21:33 45.322603 -122.216905 147 12969ft 196kts
12-Feb-24 21:34 45.276089 -122.176344 147 12969ft 196kts
12-Feb-24 21:35 45.229583 -122.135868 147 12969ft 196kts
12-Feb-24 21:36 45.183127 -122.095515 147 12970ft 196kts
12-Feb-24 21:37 45.136548 -122.055132 147 12970ft 196kts
12-Feb-24 21:38 45.089938 -122.014806 147 12970ft 196kts
12-Feb-24 21:39 45.043716 -121.974894 146 12970ft 194kts
12-Feb-24 21:40 44.997972 -121.935469 147 12969ft 191kts
12-Feb-24 21:41 44.953016 -121.896792 147 12967ft 189kts
12-Feb-24 21:42 44.908370 -121.858450 147 12961ft 188kts
12-Feb-24 21:43 44.864582 -121.820916 147 13043ft 183kts
12-Feb-24 21:44 44.820621 -121.783298 147 13028ft 186kts
12-Feb-24 21:45 44.776326 -121.745470 147 13009ft 187kts
12-Feb-24 21:46 44.731751 -121.707471 147 12996ft 187kts
12-Feb-24 21:47 44.687252 -121.669604 147 12990ft 187kts
12-Feb-24 21:48 44.642523 -121.631600 147 12790ft 198kts
12-Feb-24 21:49 44.594302 -121.590687 148 11918ft 201kts
12-Feb-24 21:50 44.546696 -121.550430 147 11135ft 201kts
12-Feb-24 21:51 44.498442 -121.509675 148 10252ft 203kts
12-Feb-24 21:52 44.450149 -121.468983 148 9391ft 202kts
12-Feb-24 21:53 44.402286 -121.428736 148 8528ft 200kts
12-Feb-24 21:54 44.353409 -121.387496 148 6994ft 204kts
12-Feb-24 21:55 44.306420 -121.347893 148 5606ft 187kts
12-Feb-24 21:56 44.269989 -121.314403 144 5644ft 124kts
12-Feb-24 21:57 44.243519 -121.288119 136 5360ft 119kts
12-Feb-24 21:58 44.221814 -121.253794 109 4758ft 118kts
12-Feb-24 21:59 44.229155 -121.212370 61 4082ft 107kts
12-Feb-24 22:00 44.242824 -121.178372 60 3516ft 98kts
12-Feb-24 22:01 44.254083 -121.150756 60 3071ft 58kts
12-Feb-24 22:02 44.257283 -121.144549 337 3066ft 1kts
12-Feb-24 22:03 44.258707 -121.146961 335 3073ft 6kts
12-Feb-24 22:04 44.259286 -121.147357 270 3076ft 0kts
12-Feb-24 22:05 44.259286 -121.147357 270 3076ft 0kts
12-Feb-24 22:06 44.259286 -121.147357 270 3076ft 0kts

Navigation Log

Ident Type
Flight plan parsing failed, navigation log unavailable